.
WxDataArchive / Data Records for 2013-07-12
2013-07-11 July 2013 2013-07-13

Data Records for Friday, 12 July 2013

Time	Temp	Chill	HIndex	Humid	Dewpt	 Wind 	HiWind	WindDir	Rain 	Barom 
-----	----	-----	------	-----	-----	------	------	-------	-----	----- 
00:00	67.1	67.1	67.1	69	56.6	0	1	338	0.00	30.031 
00:05	66.9	66.9	66.9	70	56.8	0	1	338	0.00	30.031 
00:10	66.9	66.9	66.9	70	56.8	0	1	338	0.00	30.031 
00:15	66.8	66.8	66.8	71	57.1	0	1	338	0.00	30.032 
00:20	66.6	66.6	66.6	72	57.3	0	1	338	0.00	30.032 
00:25	66.4	66.4	66.4	72	57.1	0	1	338	0.00	30.032 
00:30	66.4	66.4	66.4	73	57.5	0	1	338	0.00	30.034 
00:35	66.3	66.3	66.3	73	57.4	0	3	338	0.00	30.034 
00:40	66.3	66.3	66.3	74	57.8	0	1	338	0.00	30.034 
00:45	66.3	66.3	66.3	74	57.8	0	1	338	0.00	30.035 
00:50	66.1	66.1	66.1	75	57.9	0	1	338	0.00	30.035 
00:55	66.0	66.0	66.0	75	57.8	0	1	338	0.00	30.035 
01:00	65.8	65.8	65.8	76	58.0	0	1	338	0.00	30.036 
01:05	65.6	65.6	65.6	77	58.2	0	0	---	0.00	30.036 
01:10	65.5	65.5	65.5	77	58.1	0	0	---	0.00	30.036 
01:15	65.5	65.5	65.5	78	58.5	0	0	---	0.00	30.040 
01:20	65.3	65.3	65.3	78	58.3	0	0	---	0.00	30.040 
01:25	65.2	65.2	65.2	79	58.5	0	0	---	0.00	30.040 
01:30	65.0	65.0	65.0	79	58.3	0	0	---	0.00	30.037 
01:35	64.8	64.8	64.8	80	58.5	0	0	---	0.00	30.037 
01:40	64.5	64.5	64.5	80	58.2	0	0	---	0.00	30.037 
01:45	64.3	64.3	64.3	80	58.0	0	0	---	0.00	30.041 
01:50	64.2	64.2	64.2	81	58.2	0	0	---	0.00	30.041 
01:55	64.0	64.0	64.0	81	58.0	0	0	---	0.00	30.041 
02:00	63.9	63.9	63.9	81	57.9	0	0	---	0.00	30.049 
02:05	63.7	63.7	63.7	82	58.1	0	0	---	0.00	30.049 
02:10	63.5	63.5	63.5	82	57.9	0	0	---	0.00	30.049 
02:15	63.4	63.4	63.4	83	58.1	0	0	---	0.00	30.049 
02:20	63.2	63.2	63.2	83	57.9	0	0	---	0.00	30.049 
02:25	63.2	63.2	63.2	83	57.9	0	0	---	0.00	30.049 
02:30	63.1	63.1	63.1	83	57.8	0	0	---	0.00	30.050 
02:35	62.9	62.9	62.9	84	58.0	0	0	---	0.00	30.050 
02:40	62.9	62.9	62.9	84	58.0	0	0	---	0.00	30.050 
02:45	62.7	62.7	62.7	84	57.8	0	0	---	0.00	30.053 
02:50	62.7	62.7	62.7	84	57.8	0	0	---	0.00	30.053 
02:55	62.7	62.7	62.7	84	57.8	0	0	---	0.00	30.053 
03:00	62.7	62.7	62.7	84	57.8	0	0	---	0.00	30.054 
03:05	62.7	62.7	62.7	84	57.8	0	1	338	0.00	30.054 
03:10	62.7	62.7	62.7	84	57.8	0	1	338	0.00	30.054 
03:15	62.7	62.7	62.7	84	57.8	0	0	---	0.00	30.052 
03:20	62.7	62.7	62.7	84	57.8	0	0	---	0.00	30.052 
03:25	62.9	62.9	62.9	84	58.0	0	4	338	0.00	30.052 
03:30	62.9	62.9	62.9	84	58.0	0	1	0	0.00	30.056 
03:35	62.9	62.9	62.9	84	58.0	0	0	---	0.00	30.056 
03:40	62.7	62.7	62.7	84	57.8	0	1	0	0.00	30.056 
03:45	62.6	62.6	62.6	84	57.7	0	0	---	0.00	30.060 
03:50	62.6	62.6	62.6	84	57.7	0	0	---	0.00	30.060 
03:55	62.4	62.4	62.4	84	57.5	0	0	---	0.00	30.060 
04:00	62.3	62.3	62.3	85	57.7	0	0	---	0.00	30.062 
04:05	62.1	62.1	62.1	85	57.5	0	0	---	0.00	30.062 
04:10	62.0	62.0	62.0	85	57.4	0	0	---	0.00	30.062 
04:15	61.8	61.8	61.8	85	57.2	0	0	---	0.00	30.062 
04:20	61.6	61.6	61.6	86	57.4	0	0	---	0.00	30.062 
04:25	61.3	61.3	61.3	86	57.1	0	0	---	0.00	30.062 
04:30	61.2	61.2	61.2	86	57.0	0	0	---	0.00	30.065 
04:35	61.0	61.0	61.0	86	56.8	0	0	---	0.00	30.065 
04:40	60.7	60.7	60.7	87	56.8	0	0	---	0.00	30.065 
04:45	60.4	60.4	60.4	87	56.5	0	0	---	0.00	30.069 
04:50	60.2	60.2	60.2	88	56.6	0	0	---	0.00	30.069 
04:55	60.1	60.1	60.1	88	56.5	0	0	---	0.00	30.069 
05:00	59.9	59.9	59.9	88	56.3	0	0	---	0.00	30.076 
05:05	59.8	59.8	59.8	89	56.5	0	0	---	0.00	30.076 
05:10	59.6	59.6	59.6	89	56.4	0	0	---	0.00	30.076 
05:15	59.3	59.3	59.3	89	56.1	0	0	---	0.00	30.081 
05:20	59.2	59.2	59.2	89	56.0	0	0	---	0.00	30.081 
05:25	59.2	59.2	59.2	90	56.3	0	0	---	0.00	30.081 
05:30	59.0	59.0	59.0	90	56.1	0	0	---	0.00	30.087 
05:35	58.9	58.9	58.9	90	56.0	0	0	---	0.00	30.087 
05:40	58.7	58.7	58.7	90	55.8	0	0	---	0.00	30.087 
05:45	58.6	58.6	58.6	90	55.7	0	0	---	0.00	30.093 
05:50	58.4	58.4	58.4	91	55.8	0	0	---	0.00	30.093 
05:55	58.3	58.3	58.3	91	55.7	0	0	---	0.00	30.093 
06:00	58.3	58.3	58.3	91	55.7	0	0	---	0.00	30.100 
06:05	58.1	58.1	58.1	91	55.5	0	0	---	0.00	30.100 
06:10	58.1	58.1	58.1	91	55.5	0	0	---	0.00	30.100 
06:15	58.0	58.0	58.0	92	55.7	0	0	---	0.00	30.104 
06:20	58.0	58.0	58.0	92	55.7	0	0	---	0.00	30.104 
06:25	57.8	57.8	57.8	92	55.5	0	0	---	0.00	30.104 
06:30	58.0	58.0	58.0	92	55.7	0	0	---	0.00	30.108 
06:35	58.0	58.0	58.0	92	55.7	0	0	---	0.00	30.108 
06:40	58.0	58.0	58.0	92	55.7	0	0	---	0.00	30.108 
06:45	58.1	58.1	58.1	92	55.8	0	0	---	0.00	30.107 
06:50	58.3	58.3	58.3	93	56.3	0	0	---	0.00	30.107 
06:55	58.4	58.4	58.4	93	56.4	0	0	---	0.00	30.107 
07:00	58.4	58.4	58.4	93	56.4	0	0	---	0.00	30.107 
07:05	58.4	58.4	58.4	93	56.4	0	0	---	0.00	30.107 
07:10	58.6	58.6	58.6	93	56.6	0	0	---	0.00	30.107 
07:15	58.7	58.7	58.7	94	57.0	0	0	---	0.00	30.108 
07:20	59.0	59.0	59.0	94	57.3	0	1	0	0.00	30.108 
07:25	59.3	59.3	59.3	94	57.6	0	0	---	0.00	30.108 
07:30	59.9	59.9	59.9	94	58.2	0	1	0	0.00	30.105 
07:35	60.5	60.5	60.5	94	58.8	0	0	---	0.00	30.105 
07:40	61.3	61.3	61.3	94	59.6	0	0	---	0.00	30.105 
07:45	62.0	62.0	62.0	93	59.9	0	1	0	0.00	30.108 
07:50	62.4	62.4	62.4	92	60.0	0	1	0	0.00	30.108 
07:55	63.1	63.1	63.1	91	60.4	0	2	0	0.00	30.108 
08:00	63.9	63.9	63.9	88	60.3	0	2	0	0.00	30.109 
08:05	64.7	64.7	64.7	86	60.4	0	1	0	0.00	30.109 
08:10	65.6	65.6	65.6	84	60.6	0	2	0	0.00	30.109 
08:15	66.1	66.1	66.1	82	60.4	0	1	0	0.00	30.111 
08:20	66.8	66.8	66.8	81	60.8	0	2	0	0.00	30.111 
08:25	67.4	67.4	67.4	79	60.7	0	2	0	0.00	30.111 
08:30	67.8	67.8	67.8	77	60.3	0	1	0	0.00	30.111 
08:35	68.3	68.3	68.3	76	60.4	1	3	0	0.00	30.111 
08:40	68.6	68.6	68.6	76	60.7	0	3	0	0.00	30.111 
08:45	68.9	68.9	68.9	76	61.0	0	1	0	0.00	30.113 
08:50	69.4	69.4	69.4	76	61.5	0	1	0	0.00	30.113 
08:55	69.4	69.4	69.4	74	60.7	1	2	0	0.00	30.113 
09:00	69.6	69.6	69.6	75	61.3	0	2	0	0.00	30.112 
09:05	70.1	70.1	70.1	76	62.2	0	1	0	0.00	30.112 
09:10	70.4	70.4	70.4	73	61.3	0	1	0	0.00	30.112 
09:15	70.9	70.9	70.9	72	61.4	0	3	45	0.00	30.116 
09:20	71.3	71.3	71.3	72	61.8	0	1	45	0.00	30.116 
09:25	71.5	71.5	71.5	71	61.6	0	1	45	0.00	30.116 
09:30	71.6	71.6	71.6	71	61.7	1	3	45	0.00	30.123 
09:35	71.6	71.6	71.6	71	61.7	1	3	45	0.00	30.123 
09:40	71.8	71.8	71.8	72	62.3	1	4	45	0.00	30.123 
09:45	71.8	71.8	71.8	72	62.3	0	2	112	0.00	30.124 
09:50	72.0	72.0	72.0	71	62.1	0	2	112	0.00	30.124 
09:55	72.1	72.1	72.1	70	61.8	0	2	112	0.00	30.124 
10:00	72.3	72.3	72.3	70	62.0	0	3	112	0.00	30.122 
10:05	72.5	72.5	72.5	69	61.7	1	3	112	0.00	30.122 
10:10	72.8	72.8	72.8	69	62.0	0	2	112	0.00	30.122 
10:15	72.8	72.8	72.8	67	61.2	1	3	112	0.00	30.120 
10:20	73.0	73.0	73.0	68	61.8	2	4	112	0.00	30.120 
10:25	72.7	72.7	72.7	67	61.1	2	5	112	0.00	30.120 
10:30	72.7	72.7	72.7	69	61.9	0	1	112	0.00	30.113 
10:35	72.8	72.8	72.8	70	62.4	0	2	90	0.00	30.113 
10:40	72.8	72.8	72.8	67	61.2	0	1	90	0.00	30.113 
10:45	73.2	73.2	73.2	66	61.1	0	1	90	0.00	30.113 
10:50	73.3	73.3	73.3	66	61.2	0	2	90	0.00	30.113 
10:55	73.7	73.7	73.7	64	60.7	0	1	90	0.00	30.113 
11:00	74.2	74.2	74.2	65	61.7	1	3	90	0.00	30.110 
11:05	74.6	74.6	74.6	63	61.2	1	3	90	0.00	30.110 
11:10	74.4	74.4	74.4	60	59.6	0	3	90	0.00	30.110 
11:15	73.9	73.9	73.9	61	59.6	0	2	112	0.00	30.112 
11:20	73.9	73.9	73.9	63	60.5	2	4	112	0.00	30.112 
11:25	73.3	73.3	73.3	62	59.5	1	3	112	0.00	30.112 
11:30	73.5	73.5	73.5	65	61.0	1	4	112	0.00	30.111 
11:35	73.7	73.7	73.7	63	60.3	1	2	112	0.00	30.111 
11:40	73.7	73.7	73.7	61	59.4	1	5	315	0.00	30.111 
11:45	74.2	74.2	74.2	61	59.9	1	5	112	0.00	30.113 
11:50	74.7	74.7	74.7	61	60.3	1	4	112	0.00	30.113 
11:55	74.9	74.9	74.9	62	61.0	0	3	135	0.00	30.113 
12:00	75.1	75.1	77.5	58	59.3	1	5	112	0.00	30.112 
12:05	75.1	75.1	77.4	60	60.2	1	3	315	0.00	30.112 
12:10	74.7	74.7	74.7	60	59.9	2	5	315	0.00	30.112 
12:15	74.6	74.6	74.6	60	59.8	1	4	158	0.00	30.114 
12:20	75.3	75.3	77.5	61	60.9	1	5	135	0.00	30.114 
12:25	75.6	75.6	77.8	58	59.8	1	4	90	0.00	30.114 
12:30	76.0	76.0	78.0	59	60.6	1	3	315	0.00	30.112 
12:35	76.3	76.3	78.2	53	57.9	2	5	90	0.00	30.112 
12:40	76.8	76.8	78.5	52	57.8	1	5	112	0.00	30.112 
12:45	77.0	77.0	78.7	55	59.6	1	3	112	0.00	30.110 
12:50	76.8	76.8	78.5	53	58.4	2	7	315	0.00	30.110 
12:55	76.7	76.7	78.5	53	58.3	0	3	135	0.00	30.110 
13:00	76.8	76.8	78.5	53	58.4	1	4	112	0.00	30.106 
13:05	77.2	77.2	78.8	53	58.7	1	4	112	0.00	30.106 
13:10	77.2	77.2	78.8	52	58.2	2	5	90	0.00	30.106 
13:15	77.2	77.2	78.8	52	58.2	1	3	68	0.00	30.108 
13:20	77.2	77.2	78.8	53	58.7	1	4	90	0.00	30.108 
13:25	77.2	77.2	78.8	53	58.7	2	4	90	0.00	30.108 
13:30	77.6	77.6	78.9	49	56.9	2	5	90	0.00	30.103 
13:35	77.7	77.7	78.9	48	56.4	2	5	90	0.00	30.103 
13:40	77.6	77.6	78.8	47	55.8	2	6	90	0.00	30.103 
13:45	77.4	77.4	78.8	50	57.3	1	4	90	0.00	30.101 
13:50	77.4	77.4	78.8	49	56.7	1	5	90	0.00	30.101 
13:55	77.6	77.6	79.0	50	57.5	2	5	112	0.00	30.101 
14:00	77.7	77.7	79.0	50	57.6	1	4	90	0.00	30.098 
14:05	77.7	77.7	79.0	50	57.6	2	5	90	0.00	30.098 
14:10	77.6	77.6	79.0	50	57.5	2	7	90	0.00	30.098 
14:15	77.7	77.7	79.1	51	58.1	0	2	90	0.00	30.100 
14:20	78.1	78.1	79.2	48	56.8	2	6	90	0.00	30.100 
14:25	77.7	77.7	78.9	46	55.2	2	5	90	0.00	30.100 
14:30	77.7	77.7	78.9	47	55.8	3	9	90	0.00	30.103 
14:35	77.7	77.7	79.0	49	57.0	1	5	112	0.00	30.103 
14:40	77.6	77.6	79.0	51	58.0	2	7	112	0.00	30.103 
14:45	77.4	77.4	78.8	50	57.3	2	7	90	0.00	30.106 
14:50	77.6	77.6	78.9	49	56.9	2	5	90	0.00	30.106 
14:55	77.9	77.9	79.2	50	57.7	2	6	68	0.00	30.106 
15:00	78.1	78.1	79.4	52	59.0	1	5	135	0.00	30.099 
15:05	78.1	78.1	79.4	51	58.5	2	7	68	0.00	30.099 
15:10	78.3	78.3	79.4	50	58.1	2	4	90	0.00	30.099 
15:15	78.5	78.5	79.7	52	59.4	1	2	68	0.00	30.098 
15:20	78.8	78.8	79.9	51	59.1	2	5	90	0.00	30.098 
15:25	78.8	78.8	80.1	54	60.7	2	5	90	0.00	30.098 
15:30	78.8	78.8	79.9	51	59.1	1	5	90	0.00	30.096 
15:35	79.0	79.0	79.9	49	58.2	1	5	90	0.00	30.096 
15:40	79.0	79.0	79.9	49	58.2	2	7	112	0.00	30.096 
15:45	78.8	78.8	79.8	50	58.6	1	5	112	0.00	30.094 
15:50	78.8	78.8	79.9	51	59.1	2	6	90	0.00	30.094 
15:55	78.8	78.8	79.8	50	58.6	3	6	90	0.00	30.094 
16:00	78.5	78.5	79.6	51	58.8	1	4	68	0.00	30.090 
16:05	78.1	78.1	79.5	54	60.1	1	3	135	0.00	30.090 
16:10	78.6	78.6	79.6	49	57.8	2	7	135	0.00	30.090 
16:15	79.0	79.0	80.2	53	60.4	1	4	90	0.00	30.093 
16:20	79.2	79.2	80.1	50	58.9	2	4	112	0.00	30.093 
16:25	79.2	79.2	80.3	52	60.0	1	4	90	0.00	30.093 
16:30	79.4	79.4	80.5	52	60.2	1	4	90	0.00	30.089 
16:35	79.6	79.6	80.5	50	59.3	1	5	158	0.00	30.089 
16:40	79.2	79.2	80.1	50	58.9	2	5	90	0.00	30.089 
16:45	78.8	78.8	79.9	52	59.7	0	2	90	0.00	30.087 
16:50	78.5	78.5	79.5	48	57.2	3	6	90	0.00	30.087 
16:55	78.8	78.8	79.7	49	58.0	1	6	90	0.00	30.087 
17:00	79.0	79.0	79.9	49	58.2	2	6	90	0.00	30.089 
17:05	78.6	78.6	79.7	50	58.4	2	5	90	0.00	30.089 
17:10	79.0	79.0	79.8	48	57.6	1	3	90	0.00	30.089 
17:15	79.0	79.0	80.0	51	59.3	2	4	90	0.00	30.088 
17:20	78.8	78.8	79.7	49	58.0	2	6	90	0.00	30.088 
17:25	79.0	79.0	80.1	52	59.8	1	2	90	0.00	30.088 
17:30	79.0	79.0	80.0	50	58.7	1	4	90	0.00	30.086 
17:35	79.0	79.0	79.9	49	58.2	1	3	68	0.00	30.086 
17:40	79.4	79.4	80.3	50	59.1	1	4	68	0.00	30.086 
17:45	79.4	79.4	80.1	48	58.0	2	7	90	0.00	30.086 
17:50	79.0	79.0	79.9	49	58.2	2	6	90	0.00	30.086 
17:55	79.2	79.2	80.0	48	57.8	1	4	90	0.00	30.086 
18:00	79.2	79.2	80.1	50	58.9	1	5	90	0.00	30.082 
18:05	79.2	79.2	79.9	47	57.2	2	7	135	0.00	30.082 
18:10	79.2	79.2	80.1	50	58.9	1	5	112	0.00	30.082 
18:15	78.6	78.6	79.6	49	57.8	3	10	90	0.00	30.083 
18:20	77.7	77.7	79.0	50	57.6	2	6	112	0.00	30.083 
18:25	77.4	77.4	78.8	50	57.3	1	4	112	0.00	30.083 
18:30	77.6	77.6	79.0	52	58.6	2	4	68	0.00	30.083 
18:35	77.7	77.7	79.0	49	57.0	4	11	112	0.00	30.083 
18:40	77.7	77.7	79.0	50	57.6	3	6	112	0.00	30.083 
18:45	77.7	77.7	79.0	50	57.6	2	4	90	0.00	30.084 
18:50	77.6	77.6	78.8	47	55.8	2	5	90	0.00	30.084 
18:55	77.4	77.4	78.8	48	56.1	2	5	90	0.00	30.084 
19:00	77.4	77.4	78.8	50	57.3	2	6	112	0.00	30.085 
19:05	77.4	77.4	78.8	50	57.3	2	5	90	0.00	30.085 
19:10	77.0	77.0	78.6	49	56.4	2	9	112	0.00	30.085 
19:15	76.8	76.8	78.5	50	56.7	2	5	90	0.00	30.080 
19:20	76.7	76.7	78.4	50	56.6	2	4	112	0.00	30.080 
19:25	76.7	76.7	78.4	50	56.6	1	4	90	0.00	30.080 
19:30	76.5	76.5	78.3	50	56.5	1	4	68	0.00	30.076 
19:35	76.3	76.3	78.2	48	55.1	2	4	112	0.00	30.076 
19:40	76.3	76.3	78.2	49	55.7	2	5	90	0.00	30.076 
19:45	76.1	76.1	78.1	48	55.0	1	4	90	0.00	30.069 
19:50	76.0	76.0	78.0	48	54.9	2	4	90	0.00	30.069 
19:55	76.0	76.0	78.1	50	56.0	1	4	112	0.00	30.069 
20:00	75.8	75.8	78.0	51	56.4	0	2	112	0.00	30.071 
20:05	75.6	75.6	77.9	49	55.1	0	4	112	0.00	30.071 
20:10	75.4	75.4	77.8	50	55.4	0	2	112	0.00	30.071 
20:15	75.3	75.3	77.7	50	55.4	1	2	112	0.00	30.071 
20:20	75.1	75.1	77.6	52	56.3	1	3	112	0.00	30.071 
20:25	74.9	74.9	74.9	52	56.1	0	2	112	0.00	30.071 
20:30	74.7	74.7	74.7	53	56.4	0	2	112	0.00	30.076 
20:35	74.6	74.6	74.6	54	56.8	0	1	112	0.00	30.076 
20:40	74.4	74.4	74.4	53	56.1	1	4	112	0.00	30.076 
20:45	74.2	74.2	74.2	57	58.0	1	4	112	0.00	30.090 
20:50	73.9	73.9	73.9	55	56.7	0	1	112	0.00	30.090 
20:55	73.7	73.7	73.7	56	57.0	0	0	---	0.00	30.090 
21:00	73.3	73.3	73.3	57	57.1	0	0	---	0.00	30.094 
21:05	73.0	73.0	73.0	57	56.9	0	0	---	0.00	30.094 
21:10	72.7	72.7	72.7	58	57.1	0	0	---	0.00	30.094 
21:15	72.3	72.3	72.3	58	56.7	0	0	---	0.00	30.092 
21:20	72.0	72.0	72.0	59	56.9	0	0	---	0.00	30.092 
21:25	71.5	71.5	71.5	59	56.4	0	0	---	0.00	30.092 
21:30	71.1	71.1	71.1	61	57.0	0	0	---	0.00	30.092 
21:35	70.8	70.8	70.8	61	56.7	0	0	---	0.00	30.092 
21:40	70.4	70.4	70.4	63	57.2	0	0	---	0.00	30.092 
21:45	70.1	70.1	70.1	63	56.9	0	0	---	0.00	30.090 
21:50	69.9	69.9	69.9	63	56.7	0	0	---	0.00	30.090 
21:55	69.6	69.6	69.6	64	56.9	0	0	---	0.00	30.090 
22:00	69.4	69.4	69.4	64	56.7	0	0	---	0.00	30.093 
22:05	69.1	69.1	69.1	66	57.3	0	0	---	0.00	30.093 
22:10	68.9	68.9	68.9	66	57.1	0	1	112	0.00	30.093 
22:15	68.8	68.8	68.8	66	57.0	0	0	---	0.00	30.095 
22:20	68.6	68.6	68.6	66	56.8	0	0	---	0.00	30.095 
22:25	68.4	68.4	68.4	66	56.6	0	0	---	0.00	30.095 
22:30	68.1	68.1	68.1	67	56.7	0	0	---	0.00	30.095 
22:35	67.9	67.9	67.9	67	56.5	0	0	---	0.00	30.095 
22:40	67.6	67.6	67.6	68	56.7	0	0	---	0.00	30.095 
22:45	67.4	67.4	67.4	70	57.3	0	0	---	0.00	30.096 
22:50	67.1	67.1	67.1	70	57.0	0	0	---	0.00	30.096 
22:55	66.9	66.9	66.9	70	56.8	0	0	---	0.00	30.096 
23:00	66.8	66.8	66.8	71	57.1	0	0	---	0.00	30.095 
23:05	66.6	66.6	66.6	72	57.3	0	0	---	0.00	30.095 
23:10	66.4	66.4	66.4	72	57.1	0	0	---	0.00	30.095 
23:15	66.1	66.1	66.1	73	57.2	0	0	---	0.00	30.097 
23:20	66.0	66.0	66.0	74	57.5	0	0	---	0.00	30.097 
23:25	65.8	65.8	65.8	74	57.3	0	0	---	0.00	30.097 
23:30	65.6	65.6	65.6	75	57.5	0	0	---	0.00	30.097 
23:35	65.6	65.6	65.6	76	57.8	0	1	112	0.00	30.097 
23:40	65.8	65.8	65.8	75	57.6	0	0	---	0.00	30.097 
23:45	66.0	66.0	66.0	75	57.8	0	1	112	0.00	30.100 
23:50	66.0	66.0	66.0	75	57.8	0	0	---	0.00	30.100 
23:55	65.8	65.8	65.8	75	57.6	0	0	---	0.00	30.100 

CoCoRaHS
IN-AL-39
A2 Web Hosting
Creative Commons License
GoDaddy
search engine by freefind advanced

loaded 2018-11-15 05:55:56 • last modified 2010-11-18 10:43:29
Privacy PolicyDisclaimer
• wx.awcolley.com is powered by PmWiki v.2002016 •
• all content (unless otherwise noted) © 2018 A W Colley